sensor_id;sensor_type;location;lat;lon;timestamp;P1;durP1;ratioP1;P2;durP2;ratioP2
42244;SDS011;27912;51.828;5.688;2024-01-11T00:00:40;39.47;;;14.90;;
42244;SDS011;27912;51.828;5.688;2024-01-11T00:03:06;29.58;;;13.20;;
42244;SDS011;27912;51.828;5.688;2024-01-11T00:05:32;34.28;;;14.77;;
42244;SDS011;27912;51.828;5.688;2024-01-11T00:07:58;30.27;;;12.85;;
42244;SDS011;27912;51.828;5.688;2024-01-11T00:10:23;33.58;;;13.05;;
42244;SDS011;27912;51.828;5.688;2024-01-11T00:12:49;32.50;;;14.10;;
42244;SDS011;27912;51.828;5.688;2024-01-11T00:15:14;32.25;;;13.20;;
42244;SDS011;27912;51.828;5.688;2024-01-11T00:17:40;38.67;;;14.80;;
42244;SDS011;27912;51.828;5.688;2024-01-11T00:20:06;34.08;;;14.43;;
42244;SDS011;27912;51.828;5.688;2024-01-11T00:22:32;32.35;;;13.75;;
42244;SDS011;27912;51.828;5.688;2024-01-11T00:24:57;35.17;;;13.45;;
42244;SDS011;27912;51.828;5.688;2024-01-11T00:27:26;28.77;;;12.25;;
42244;SDS011;27912;51.828;5.688;2024-01-11T00:29:53;37.90;;;13.82;;
42244;SDS011;27912;51.828;5.688;2024-01-11T00:32:19;30.98;;;13.10;;
42244;SDS011;27912;51.828;5.688;2024-01-11T00:34:46;27.10;;;12.52;;
42244;SDS011;27912;51.828;5.688;2024-01-11T00:37:12;33.95;;;13.68;;
42244;SDS011;27912;51.828;5.688;2024-01-11T00:39:39;35.47;;;14.05;;
42244;SDS011;27912;51.828;5.688;2024-01-11T00:42:04;30.73;;;12.73;;
42244;SDS011;27912;51.828;5.688;2024-01-11T00:44:30;36.67;;;13.65;;
42244;SDS011;27912;51.828;5.688;2024-01-11T00:46:56;37.13;;;14.07;;
42244;SDS011;27912;51.828;5.688;2024-01-11T00:49:21;38.35;;;15.68;;
42244;SDS011;27912;51.828;5.688;2024-01-11T00:51:47;34.70;;;14.25;;
42244;SDS011;27912;51.828;5.688;2024-01-11T00:54:12;34.53;;;13.30;;
42244;SDS011;27912;51.828;5.688;2024-01-11T00:56:38;32.40;;;12.75;;
42244;SDS011;27912;51.828;5.688;2024-01-11T00:59:04;37.67;;;13.00;;
42244;SDS011;27912;51.828;5.688;2024-01-11T01:01:30;35.08;;;13.48;;
42244;SDS011;27912;51.828;5.688;2024-01-11T01:03:55;34.78;;;14.40;;
42244;SDS011;27912;51.828;5.688;2024-01-11T01:06:21;32.60;;;13.77;;
42244;SDS011;27912;51.828;5.688;2024-01-11T01:08:47;35.25;;;14.18;;
42244;SDS011;27912;51.828;5.688;2024-01-11T01:11:15;28.90;;;12.50;;
42244;SDS011;27912;51.828;5.688;2024-01-11T01:13:43;34.17;;;15.20;;
42244;SDS011;27912;51.828;5.688;2024-01-11T01:16:12;37.05;;;14.07;;
42244;SDS011;27912;51.828;5.688;2024-01-11T01:18:38;31.48;;;13.45;;
42244;SDS011;27912;51.828;5.688;2024-01-11T01:21:06;34.78;;;14.35;;
42244;SDS011;27912;51.828;5.688;2024-01-11T01:23:32;32.83;;;13.90;;
42244;SDS011;27912;51.828;5.688;2024-01-11T01:25:57;34.97;;;14.02;;
42244;SDS011;27912;51.828;5.688;2024-01-11T01:28:23;32.55;;;14.02;;
42244;SDS011;27912;51.828;5.688;2024-01-11T01:30:49;34.00;;;14.20;;
42244;SDS011;27912;51.828;5.688;2024-01-11T01:33:14;29.17;;;12.10;;
42244;SDS011;27912;51.828;5.688;2024-01-11T01:35:40;33.63;;;12.40;;
42244;SDS011;27912;51.828;5.688;2024-01-11T01:38:05;30.60;;;11.77;;
42244;SDS011;27912;51.828;5.688;2024-01-11T01:40:31;31.05;;;12.40;;
42244;SDS011;27912;51.828;5.688;2024-01-11T01:43:00;36.88;;;13.85;;
42244;SDS011;27912;51.828;5.688;2024-01-11T01:45:25;33.10;;;12.77;;
42244;SDS011;27912;51.828;5.688;2024-01-11T01:47:52;31.05;;;12.80;;
42244;SDS011;27912;51.828;5.688;2024-01-11T01:50:18;33.83;;;12.05;;
42244;SDS011;27912;51.828;5.688;2024-01-11T01:52:45;28.83;;;11.70;;
42244;SDS011;27912;51.828;5.688;2024-01-11T01:55:13;35.15;;;12.75;;
42244;SDS011;27912;51.828;5.688;2024-01-11T01:57:42;33.20;;;13.75;;
42244;SDS011;27912;51.828;5.688;2024-01-11T02:00:10;37.22;;;14.18;;
42244;SDS011;27912;51.828;5.688;2024-01-11T02:02:39;30.25;;;12.48;;
42244;SDS011;27912;51.828;5.688;2024-01-11T02:05:07;30.45;;;12.90;;
42244;SDS011;27912;51.828;5.688;2024-01-11T02:07:34;27.75;;;12.23;;
42244;SDS011;27912;51.828;5.688;2024-01-11T02:10:01;31.83;;;13.10;;
42244;SDS011;27912;51.828;5.688;2024-01-11T02:12:28;29.98;;;11.43;;
42244;SDS011;27912;51.828;5.688;2024-01-11T02:14:55;30.77;;;13.35;;
42244;SDS011;27912;51.828;5.688;2024-01-11T02:17:21;30.13;;;11.40;;
42244;SDS011;27912;51.828;5.688;2024-01-11T02:19:49;27.65;;;11.15;;
42244;SDS011;27912;51.828;5.688;2024-01-11T02:22:19;31.17;;;13.77;;
42244;SDS011;27912;51.828;5.688;2024-01-11T02:24:49;32.78;;;11.95;;
42244;SDS011;27912;51.828;5.688;2024-01-11T02:27:14;33.15;;;12.68;;
42244;SDS011;27912;51.828;5.688;2024-01-11T02:29:42;31.35;;;11.63;;
42244;SDS011;27912;51.828;5.688;2024-01-11T02:32:10;32.55;;;12.05;;
42244;SDS011;27912;51.828;5.688;2024-01-11T02:34:37;28.92;;;10.65;;
42244;SDS011;27912;51.828;5.688;2024-01-11T02:37:02;26.30;;;10.00;;
42244;SDS011;27912;51.828;5.688;2024-01-11T02:39:31;29.83;;;11.68;;
42244;SDS011;27912;51.828;5.688;2024-01-11T02:41:59;27.27;;;11.38;;
42244;SDS011;27912;51.828;5.688;2024-01-11T02:44:27;32.20;;;11.85;;
42244;SDS011;27912;51.828;5.688;2024-01-11T02:46:53;27.40;;;10.57;;
42244;SDS011;27912;51.828;5.688;2024-01-11T02:49:21;27.50;;;11.25;;
42244;SDS011;27912;51.828;5.688;2024-01-11T02:51:47;31.65;;;12.25;;
42244;SDS011;27912;51.828;5.688;2024-01-11T02:54:13;28.20;;;10.98;;
42244;SDS011;27912;51.828;5.688;2024-01-11T02:56:38;25.05;;;10.90;;
42244;SDS011;27912;51.828;5.688;2024-01-11T02:59:04;30.63;;;9.63;;
42244;SDS011;27912;51.828;5.688;2024-01-11T03:01:30;31.17;;;12.70;;
42244;SDS011;27912;51.828;5.688;2024-01-11T03:03:56;26.60;;;11.48;;
42244;SDS011;27912;51.828;5.688;2024-01-11T03:06:22;23.10;;;10.57;;
42244;SDS011;27912;51.828;5.688;2024-01-11T03:08:48;34.03;;;11.88;;
42244;SDS011;27912;51.828;5.688;2024-01-11T03:11:14;28.17;;;11.63;;
42244;SDS011;27912;51.828;5.688;2024-01-11T03:13:41;29.23;;;10.95;;
42244;SDS011;27912;51.828;5.688;2024-01-11T03:16:07;31.92;;;11.15;;
42244;SDS011;27912;51.828;5.688;2024-01-11T03:18:32;27.73;;;12.00;;
42244;SDS011;27912;51.828;5.688;2024-01-11T03:20:58;27.88;;;10.40;;
42244;SDS011;27912;51.828;5.688;2024-01-11T03:23:24;28.38;;;10.75;;
42244;SDS011;27912;51.828;5.688;2024-01-11T03:25:50;30.45;;;10.57;;
42244;SDS011;27912;51.828;5.688;2024-01-11T03:28:17;25.27;;;9.85;;
42244;SDS011;27912;51.828;5.688;2024-01-11T03:30:49;31.67;;;11.50;;
42244;SDS011;27912;51.828;5.688;2024-01-11T03:33:14;30.73;;;10.85;;
42244;SDS011;27912;51.828;5.688;2024-01-11T03:35:40;28.40;;;10.45;;
42244;SDS011;27912;51.828;5.688;2024-01-11T03:38:08;29.60;;;10.57;;
42244;SDS011;27912;51.828;5.688;2024-01-11T03:40:34;26.55;;;10.77;;
42244;SDS011;27912;51.828;5.688;2024-01-11T03:43:00;27.52;;;11.75;;
42244;SDS011;27912;51.828;5.688;2024-01-11T03:45:25;29.42;;;9.70;;
42244;SDS011;27912;51.828;5.688;2024-01-11T03:47:52;29.83;;;11.52;;
42244;SDS011;27912;51.828;5.688;2024-01-11T03:50:18;26.23;;;11.10;;
42244;SDS011;27912;51.828;5.688;2024-01-11T03:52:44;26.83;;;10.15;;
42244;SDS011;27912;51.828;5.688;2024-01-11T03:55:10;32.53;;;11.93;;
42244;SDS011;27912;51.828;5.688;2024-01-11T03:57:35;29.75;;;11.15;;
42244;SDS011;27912;51.828;5.688;2024-01-11T04:00:01;29.52;;;10.85;;
42244;SDS011;27912;51.828;5.688;2024-01-11T04:02:31;25.45;;;10.07;;
42244;SDS011;27912;51.828;5.688;2024-01-11T04:04:56;28.83;;;12.38;;
42244;SDS011;27912;51.828;5.688;2024-01-11T04:07:23;26.70;;;11.23;;
42244;SDS011;27912;51.828;5.688;2024-01-11T04:09:49;24.73;;;10.15;;
42244;SDS011;27912;51.828;5.688;2024-01-11T04:12:17;22.55;;;9.23;;
42244;SDS011;27912;51.828;5.688;2024-01-11T04:14:43;30.58;;;11.40;;
42244;SDS011;27912;51.828;5.688;2024-01-11T04:17:12;24.95;;;10.45;;
42244;SDS011;27912;51.828;5.688;2024-01-11T04:19:37;30.42;;;10.68;;
42244;SDS011;27912;51.828;5.688;2024-01-11T04:22:04;29.25;;;11.65;;
42244;SDS011;27912;51.828;5.688;2024-01-11T04:24:29;30.02;;;11.55;;
42244;SDS011;27912;51.828;5.688;2024-01-11T04:26:55;27.75;;;10.15;;
42244;SDS011;27912;51.828;5.688;2024-01-11T04:29:26;26.27;;;9.30;;
42244;SDS011;27912;51.828;5.688;2024-01-11T04:31:52;29.08;;;10.45;;
42244;SDS011;27912;51.828;5.688;2024-01-11T04:34:18;30.08;;;10.98;;
42244;SDS011;27912;51.828;5.688;2024-01-11T04:36:44;27.73;;;10.57;;
42244;SDS011;27912;51.828;5.688;2024-01-11T04:39:10;26.90;;;9.63;;
42244;SDS011;27912;51.828;5.688;2024-01-11T04:41:36;31.27;;;11.20;;
42244;SDS011;27912;51.828;5.688;2024-01-11T04:44:04;26.58;;;9.57;;
42244;SDS011;27912;51.828;5.688;2024-01-11T04:46:33;24.42;;;9.45;;
42244;SDS011;27912;51.828;5.688;2024-01-11T04:49:01;24.17;;;8.85;;
42244;SDS011;27912;51.828;5.688;2024-01-11T04:51:27;22.20;;;8.90;;
42244;SDS011;27912;51.828;5.688;2024-01-11T04:53:53;26.48;;;10.02;;
42244;SDS011;27912;51.828;5.688;2024-01-11T04:56:18;28.77;;;10.40;;
42244;SDS011;27912;51.828;5.688;2024-01-11T04:58:44;28.63;;;10.85;;
42244;SDS011;27912;51.828;5.688;2024-01-11T05:03:44;23.73;;;10.27;;
42244;SDS011;27912;51.828;5.688;2024-01-11T05:06:20;30.13;;;11.07;;
42244;SDS011;27912;51.828;5.688;2024-01-11T05:08:47;32.63;;;11.32;;
42244;SDS011;27912;51.828;5.688;2024-01-11T05:11:17;27.95;;;11.18;;
42244;SDS011;27912;51.828;5.688;2024-01-11T05:13:44;27.58;;;11.70;;
42244;SDS011;27912;51.828;5.688;2024-01-11T05:16:28;28.40;;;10.77;;
42244;SDS011;27912;51.828;5.688;2024-01-11T05:18:55;34.60;;;11.57;;
42244;SDS011;27912;51.828;5.688;2024-01-11T05:21:23;31.25;;;12.05;;
42244;SDS011;27912;51.828;5.688;2024-01-11T05:23:50;27.85;;;11.50;;
42244;SDS011;27912;51.828;5.688;2024-01-11T05:26:18;28.08;;;10.23;;
42244;SDS011;27912;51.828;5.688;2024-01-11T05:28:45;29.70;;;10.60;;
42244;SDS011;27912;51.828;5.688;2024-01-11T05:31:12;27.95;;;11.30;;
42244;SDS011;27912;51.828;5.688;2024-01-11T05:33:39;30.02;;;11.32;;
42244;SDS011;27912;51.828;5.688;2024-01-11T05:36:05;26.30;;;10.95;;
42244;SDS011;27912;51.828;5.688;2024-01-11T05:38:35;28.80;;;10.77;;
42244;SDS011;27912;51.828;5.688;2024-01-11T05:41:05;22.83;;;9.20;;
42244;SDS011;27912;51.828;5.688;2024-01-11T05:43:31;25.63;;;10.88;;
42244;SDS011;27912;51.828;5.688;2024-01-11T05:45:57;22.15;;;8.93;;
42244;SDS011;27912;51.828;5.688;2024-01-11T05:48:25;27.15;;;11.20;;
42244;SDS011;27912;51.828;5.688;2024-01-11T05:50:53;28.42;;;11.20;;
42244;SDS011;27912;51.828;5.688;2024-01-11T05:53:18;26.70;;;9.95;;
42244;SDS011;27912;51.828;5.688;2024-01-11T05:55:46;23.05;;;10.02;;
42244;SDS011;27912;51.828;5.688;2024-01-11T05:58:12;30.02;;;10.63;;
42244;SDS011;27912;51.828;5.688;2024-01-11T06:00:37;32.25;;;11.15;;
42244;SDS011;27912;51.828;5.688;2024-01-11T06:03:05;28.83;;;11.50;;
42244;SDS011;27912;51.828;5.688;2024-01-11T06:05:31;29.23;;;11.82;;
42244;SDS011;27912;51.828;5.688;2024-01-11T06:07:56;29.17;;;12.85;;
42244;SDS011;27912;51.828;5.688;2024-01-11T06:10:22;29.77;;;11.13;;
42244;SDS011;27912;51.828;5.688;2024-01-11T06:12:48;25.63;;;11.30;;
42244;SDS011;27912;51.828;5.688;2024-01-11T06:15:14;29.35;;;11.23;;
42244;SDS011;27912;51.828;5.688;2024-01-11T06:17:42;23.20;;;8.93;;
42244;SDS011;27912;51.828;5.688;2024-01-11T06:20:08;24.52;;;10.00;;
42244;SDS011;27912;51.828;5.688;2024-01-11T06:22:35;25.73;;;9.95;;
42244;SDS011;27912;51.828;5.688;2024-01-11T06:25:01;32.70;;;11.25;;
42244;SDS011;27912;51.828;5.688;2024-01-11T06:27:26;27.58;;;11.80;;
42244;SDS011;27912;51.828;5.688;2024-01-11T06:29:52;28.65;;;11.43;;
42244;SDS011;27912;51.828;5.688;2024-01-11T06:32:18;31.73;;;10.70;;
42244;SDS011;27912;51.828;5.688;2024-01-11T06:34:43;27.25;;;10.55;;
42244;SDS011;27912;51.828;5.688;2024-01-11T06:37:11;29.60;;;11.15;;
42244;SDS011;27912;51.828;5.688;2024-01-11T06:39:37;33.25;;;12.40;;
42244;SDS011;27912;51.828;5.688;2024-01-11T06:42:05;29.67;;;11.02;;
42244;SDS011;27912;51.828;5.688;2024-01-11T06:44:30;35.90;;;13.98;;
42244;SDS011;27912;51.828;5.688;2024-01-11T06:46:56;37.20;;;12.93;;
42244;SDS011;27912;51.828;5.688;2024-01-11T06:49:22;39.78;;;14.38;;
42244;SDS011;27912;51.828;5.688;2024-01-11T06:51:48;33.47;;;11.90;;
42244;SDS011;27912;51.828;5.688;2024-01-11T06:54:13;37.47;;;12.18;;
42244;SDS011;27912;51.828;5.688;2024-01-11T06:56:39;32.63;;;12.98;;
42244;SDS011;27912;51.828;5.688;2024-01-11T06:59:05;35.35;;;12.95;;
42244;SDS011;27912;51.828;5.688;2024-01-11T07:01:32;39.30;;;13.63;;
42244;SDS011;27912;51.828;5.688;2024-01-11T07:03:58;33.33;;;13.65;;
42244;SDS011;27912;51.828;5.688;2024-01-11T07:06:27;37.70;;;14.32;;
42244;SDS011;27912;51.828;5.688;2024-01-11T07:08:52;31.40;;;11.20;;
42244;SDS011;27912;51.828;5.688;2024-01-11T07:11:20;32.70;;;13.05;;
42244;SDS011;27912;51.828;5.688;2024-01-11T07:13:46;34.25;;;13.93;;
42244;SDS011;27912;51.828;5.688;2024-01-11T07:16:12;33.10;;;13.10;;
42244;SDS011;27912;51.828;5.688;2024-01-11T07:18:37;37.80;;;13.68;;
42244;SDS011;27912;51.828;5.688;2024-01-11T07:21:03;31.70;;;12.90;;
42244;SDS011;27912;51.828;5.688;2024-01-11T07:23:29;37.53;;;14.40;;
42244;SDS011;27912;51.828;5.688;2024-01-11T07:25:54;33.47;;;13.63;;
42244;SDS011;27912;51.828;5.688;2024-01-11T07:28:20;32.33;;;13.43;;
42244;SDS011;27912;51.828;5.688;2024-01-11T07:30:50;35.85;;;13.65;;
42244;SDS011;27912;51.828;5.688;2024-01-11T07:33:17;34.03;;;13.75;;
42244;SDS011;27912;51.828;5.688;2024-01-11T07:35:43;39.45;;;14.65;;
42244;SDS011;27912;51.828;5.688;2024-01-11T07:38:08;34.22;;;14.50;;
42244;SDS011;27912;51.828;5.688;2024-01-11T07:40:34;35.47;;;15.70;;
42244;SDS011;27912;51.828;5.688;2024-01-11T07:42:59;35.88;;;15.18;;
42244;SDS011;27912;51.828;5.688;2024-01-11T07:45:25;39.90;;;14.88;;
42244;SDS011;27912;51.828;5.688;2024-01-11T07:47:51;36.38;;;14.43;;
42244;SDS011;27912;51.828;5.688;2024-01-11T07:50:16;36.50;;;15.65;;
42244;SDS011;27912;51.828;5.688;2024-01-11T07:52:42;33.88;;;14.57;;
42244;SDS011;27912;51.828;5.688;2024-01-11T07:55:08;41.70;;;15.40;;
42244;SDS011;27912;51.828;5.688;2024-01-11T07:57:38;34.67;;;14.40;;
42244;SDS011;27912;51.828;5.688;2024-01-11T08:00:05;37.70;;;14.60;;
42244;SDS011;27912;51.828;5.688;2024-01-11T08:02:34;33.45;;;13.68;;
42244;SDS011;27912;51.828;5.688;2024-01-11T08:05:00;33.33;;;13.32;;
42244;SDS011;27912;51.828;5.688;2024-01-11T08:07:26;39.63;;;15.25;;
42244;SDS011;27912;51.828;5.688;2024-01-11T08:09:52;44.15;;;17.83;;
42244;SDS011;27912;51.828;5.688;2024-01-11T08:12:18;38.13;;;15.57;;
42244;SDS011;27912;51.828;5.688;2024-01-11T08:14:44;36.92;;;15.30;;
42244;SDS011;27912;51.828;5.688;2024-01-11T08:17:11;41.47;;;17.80;;
42244;SDS011;27912;51.828;5.688;2024-01-11T08:19:38;40.97;;;16.15;;
42244;SDS011;27912;51.828;5.688;2024-01-11T08:22:04;40.13;;;16.50;;
42244;SDS011;27912;51.828;5.688;2024-01-11T08:24:31;37.65;;;16.08;;
42244;SDS011;27912;51.828;5.688;2024-01-11T08:26:56;41.45;;;16.85;;
42244;SDS011;27912;51.828;5.688;2024-01-11T08:29:24;42.65;;;17.48;;
42244;SDS011;27912;51.828;5.688;2024-01-11T08:31:50;36.47;;;16.58;;
42244;SDS011;27912;51.828;5.688;2024-01-11T08:34:16;41.90;;;16.48;;
42244;SDS011;27912;51.828;5.688;2024-01-11T08:36:42;46.45;;;18.08;;
42244;SDS011;27912;51.828;5.688;2024-01-11T08:39:08;48.00;;;16.70;;
42244;SDS011;27912;51.828;5.688;2024-01-11T08:41:36;45.80;;;17.88;;
42244;SDS011;27912;51.828;5.688;2024-01-11T08:44:05;41.40;;;17.70;;
42244;SDS011;27912;51.828;5.688;2024-01-11T08:46:32;42.97;;;17.48;;
42244;SDS011;27912;51.828;5.688;2024-01-11T08:49:01;43.28;;;18.55;;
42244;SDS011;27912;51.828;5.688;2024-01-11T08:51:28;44.97;;;18.75;;
42244;SDS011;27912;51.828;5.688;2024-01-11T08:53:54;44.10;;;17.40;;
42244;SDS011;27912;51.828;5.688;2024-01-11T08:56:21;47.42;;;19.27;;
42244;SDS011;27912;51.828;5.688;2024-01-11T08:58:47;48.70;;;20.42;;
42244;SDS011;27912;51.828;5.688;2024-01-11T09:01:14;43.63;;;19.92;;
42244;SDS011;27912;51.828;5.688;2024-01-11T09:03:40;47.92;;;20.38;;
42244;SDS011;27912;51.828;5.688;2024-01-11T09:06:06;50.67;;;21.88;;
42244;SDS011;27912;51.828;5.688;2024-01-11T09:08:32;46.58;;;20.27;;
42244;SDS011;27912;51.828;5.688;2024-01-11T09:10:59;47.47;;;20.60;;
42244;SDS011;27912;51.828;5.688;2024-01-11T09:13:26;46.97;;;21.73;;
42244;SDS011;27912;51.828;5.688;2024-01-11T09:15:53;47.58;;;21.63;;
42244;SDS011;27912;51.828;5.688;2024-01-11T09:18:19;45.13;;;21.95;;
42244;SDS011;27912;51.828;5.688;2024-01-11T09:20:45;46.75;;;20.95;;
42244;SDS011;27912;51.828;5.688;2024-01-11T09:23:12;47.63;;;20.17;;
42244;SDS011;27912;51.828;5.688;2024-01-11T09:25:38;47.13;;;19.15;;
42244;SDS011;27912;51.828;5.688;2024-01-11T09:28:07;45.10;;;20.85;;
42244;SDS011;27912;51.828;5.688;2024-01-11T09:30:33;50.58;;;22.77;;
42244;SDS011;27912;51.828;5.688;2024-01-11T09:32:59;51.20;;;20.38;;
42244;SDS011;27912;51.828;5.688;2024-01-11T09:35:25;43.80;;;19.75;;
42244;SDS011;27912;51.828;5.688;2024-01-11T09:37:51;43.10;;;19.55;;
42244;SDS011;27912;51.828;5.688;2024-01-11T09:40:17;46.85;;;19.40;;
42244;SDS011;27912;51.828;5.688;2024-01-11T09:42:43;46.00;;;20.55;;
42244;SDS011;27912;51.828;5.688;2024-01-11T09:45:14;42.83;;;19.80;;
42244;SDS011;27912;51.828;5.688;2024-01-11T09:47:41;49.80;;;21.87;;
42244;SDS011;27912;51.828;5.688;2024-01-11T09:50:07;45.10;;;19.23;;
42244;SDS011;27912;51.828;5.688;2024-01-11T09:52:33;45.17;;;20.50;;
42244;SDS011;27912;51.828;5.688;2024-01-11T09:54:59;44.03;;;20.20;;
42244;SDS011;27912;51.828;5.688;2024-01-11T09:57:28;45.72;;;19.35;;
42244;SDS011;27912;51.828;5.688;2024-01-11T09:59:57;47.60;;;21.90;;
42244;SDS011;27912;51.828;5.688;2024-01-11T10:02:24;50.78;;;21.92;;
42244;SDS011;27912;51.828;5.688;2024-01-11T10:04:53;46.33;;;20.52;;
42244;SDS011;27912;51.828;5.688;2024-01-11T10:07:19;46.33;;;21.25;;
42244;SDS011;27912;51.828;5.688;2024-01-11T10:09:47;49.63;;;23.88;;
42244;SDS011;27912;51.828;5.688;2024-01-11T10:12:13;53.40;;;22.98;;
42244;SDS011;27912;51.828;5.688;2024-01-11T10:14:39;49.88;;;22.17;;
42244;SDS011;27912;51.828;5.688;2024-01-11T10:17:05;49.90;;;23.70;;
42244;SDS011;27912;51.828;5.688;2024-01-11T10:19:31;48.03;;;22.77;;
42244;SDS011;27912;51.828;5.688;2024-01-11T10:21:57;56.30;;;24.60;;
42244;SDS011;27912;51.828;5.688;2024-01-11T10:24:26;50.42;;;22.08;;
42244;SDS011;27912;51.828;5.688;2024-01-11T10:27:00;48.20;;;20.90;;
42244;SDS011;27912;51.828;5.688;2024-01-11T10:29:32;50.70;;;22.83;;
42244;SDS011;27912;51.828;5.688;2024-01-11T10:32:00;47.35;;;21.27;;
42244;SDS011;27912;51.828;5.688;2024-01-11T10:34:25;48.80;;;20.90;;
42244;SDS011;27912;51.828;5.688;2024-01-11T10:36:51;51.90;;;22.67;;
42244;SDS011;27912;51.828;5.688;2024-01-11T10:39:17;49.58;;;23.42;;
42244;SDS011;27912;51.828;5.688;2024-01-11T10:41:50;48.22;;;22.25;;
42244;SDS011;27912;51.828;5.688;2024-01-11T10:44:20;56.03;;;22.90;;
42244;SDS011;27912;51.828;5.688;2024-01-11T10:46:47;48.78;;;21.40;;
42244;SDS011;27912;51.828;5.688;2024-01-11T10:49:20;49.75;;;21.67;;
42244;SDS011;27912;51.828;5.688;2024-01-11T10:51:54;49.63;;;21.10;;
42244;SDS011;27912;51.828;5.688;2024-01-11T10:54:26;48.40;;;22.05;;
42244;SDS011;27912;51.828;5.688;2024-01-11T10:56:53;48.47;;;21.92;;
42244;SDS011;27912;51.828;5.688;2024-01-11T10:59:20;50.63;;;22.98;;
42244;SDS011;27912;51.828;5.688;2024-01-11T11:01:50;44.97;;;19.38;;
42244;SDS011;27912;51.828;5.688;2024-01-11T11:04:21;44.72;;;19.92;;
42244;SDS011;27912;51.828;5.688;2024-01-11T11:06:50;48.38;;;21.52;;
42244;SDS011;27912;51.828;5.688;2024-01-11T11:09:20;45.38;;;21.20;;
42244;SDS011;27912;51.828;5.688;2024-01-11T11:11:46;44.00;;;19.17;;
42244;SDS011;27912;51.828;5.688;2024-01-11T11:14:14;44.92;;;20.05;;
42244;SDS011;27912;51.828;5.688;2024-01-11T11:16:40;43.60;;;19.77;;
42244;SDS011;27912;51.828;5.688;2024-01-11T11:19:06;44.22;;;20.25;;
42244;SDS011;27912;51.828;5.688;2024-01-11T11:21:32;40.00;;;19.15;;
42244;SDS011;27912;51.828;5.688;2024-01-11T11:24:06;46.05;;;19.25;;
42244;SDS011;27912;51.828;5.688;2024-01-11T11:26:32;44.17;;;19.10;;
42244;SDS011;27912;51.828;5.688;2024-01-11T11:28:58;38.85;;;18.40;;
42244;SDS011;27912;51.828;5.688;2024-01-11T11:34:02;40.55;;;18.75;;
42244;SDS011;27912;51.828;5.688;2024-01-11T11:36:29;40.38;;;19.13;;
42244;SDS011;27912;51.828;5.688;2024-01-11T11:38:58;38.17;;;18.52;;
42244;SDS011;27912;51.828;5.688;2024-01-11T11:41:26;40.40;;;17.92;;
42244;SDS011;27912;51.828;5.688;2024-01-11T11:43:52;33.72;;;16.77;;
42244;SDS011;27912;51.828;5.688;2024-01-11T11:46:18;35.58;;;15.82;;
42244;SDS011;27912;51.828;5.688;2024-01-11T11:48:48;31.95;;;12.70;;
42244;SDS011;27912;51.828;5.688;2024-01-11T11:51:16;31.95;;;13.45;;
42244;SDS011;27912;51.828;5.688;2024-01-11T11:53:46;31.15;;;12.85;;
42244;SDS011;27912;51.828;5.688;2024-01-11T11:56:18;34.30;;;12.65;;
42244;SDS011;27912;51.828;5.688;2024-01-11T11:58:45;26.23;;;11.40;;
42244;SDS011;27912;51.828;5.688;2024-01-11T12:01:12;27.98;;;11.65;;
42244;SDS011;27912;51.828;5.688;2024-01-11T12:03:40;28.63;;;11.27;;
42244;SDS011;27912;51.828;5.688;2024-01-11T12:06:16;26.20;;;9.77;;
42244;SDS011;27912;51.828;5.688;2024-01-11T12:08:44;22.55;;;8.90;;
42244;SDS011;27912;51.828;5.688;2024-01-11T12:11:14;19.83;;;7.20;;
42244;SDS011;27912;51.828;5.688;2024-01-11T12:13:47;26.48;;;9.70;;
42244;SDS011;27912;51.828;5.688;2024-01-11T12:16:13;29.17;;;10.30;;
42244;SDS011;27912;51.828;5.688;2024-01-11T12:18:39;29.15;;;9.68;;
42244;SDS011;27912;51.828;5.688;2024-01-11T12:21:06;34.28;;;11.65;;
42244;SDS011;27912;51.828;5.688;2024-01-11T12:23:33;29.55;;;10.23;;
42244;SDS011;27912;51.828;5.688;2024-01-11T12:26:03;31.42;;;11.13;;
42244;SDS011;27912;51.828;5.688;2024-01-11T12:28:32;30.20;;;10.73;;
42244;SDS011;27912;51.828;5.688;2024-01-11T12:30:58;34.15;;;10.98;;
42244;SDS011;27912;51.828;5.688;2024-01-11T12:33:25;33.47;;;11.45;;
42244;SDS011;27912;51.828;5.688;2024-01-11T12:35:51;33.53;;;11.13;;
42244;SDS011;27912;51.828;5.688;2024-01-11T12:38:17;31.55;;;10.93;;
42244;SDS011;27912;51.828;5.688;2024-01-11T12:40:42;30.23;;;11.68;;
42244;SDS011;27912;51.828;5.688;2024-01-11T12:43:11;32.10;;;11.52;;
42244;SDS011;27912;51.828;5.688;2024-01-11T12:45:37;27.75;;;10.45;;
42244;SDS011;27912;51.828;5.688;2024-01-11T12:48:03;33.85;;;12.52;;
42244;SDS011;27912;51.828;5.688;2024-01-11T12:50:32;30.85;;;11.93;;
42244;SDS011;27912;51.828;5.688;2024-01-11T12:53:08;39.20;;;12.40;;
42244;SDS011;27912;51.828;5.688;2024-01-11T12:55:45;37.55;;;12.30;;
42244;SDS011;27912;51.828;5.688;2024-01-11T12:58:11;38.88;;;13.40;;
42244;SDS011;27912;51.828;5.688;2024-01-11T13:00:37;37.85;;;12.18;;
42244;SDS011;27912;51.828;5.688;2024-01-11T13:03:06;33.80;;;12.43;;
42244;SDS011;27912;51.828;5.688;2024-01-11T13:05:32;32.33;;;11.20;;
42244;SDS011;27912;51.828;5.688;2024-01-11T13:08:01;40.45;;;12.82;;
42244;SDS011;27912;51.828;5.688;2024-01-11T13:10:28;35.03;;;12.15;;
42244;SDS011;27912;51.828;5.688;2024-01-11T13:12:54;38.95;;;12.95;;
42244;SDS011;27912;51.828;5.688;2024-01-11T13:15:20;34.55;;;12.25;;
42244;SDS011;27912;51.828;5.688;2024-01-11T13:17:46;38.15;;;13.48;;
42244;SDS011;27912;51.828;5.688;2024-01-11T13:20:12;42.33;;;13.23;;
42244;SDS011;27912;51.828;5.688;2024-01-11T13:22:38;39.70;;;13.48;;
42244;SDS011;27912;51.828;5.688;2024-01-11T13:25:04;39.95;;;13.68;;
42244;SDS011;27912;51.828;5.688;2024-01-11T13:27:29;41.40;;;14.55;;
42244;SDS011;27912;51.828;5.688;2024-01-11T13:29:56;34.97;;;13.55;;
42244;SDS011;27912;51.828;5.688;2024-01-11T13:32:23;34.55;;;12.15;;
42244;SDS011;27912;51.828;5.688;2024-01-11T13:34:49;35.45;;;13.32;;
42244;SDS011;27912;51.828;5.688;2024-01-11T13:37:18;39.10;;;14.25;;
42244;SDS011;27912;51.828;5.688;2024-01-11T13:39:44;41.60;;;14.70;;
42244;SDS011;27912;51.828;5.688;2024-01-11T13:42:10;38.95;;;12.88;;
42244;SDS011;27912;51.828;5.688;2024-01-11T13:44:36;36.72;;;13.43;;
42244;SDS011;27912;51.828;5.688;2024-01-11T13:47:03;36.58;;;13.73;;
42244;SDS011;27912;51.828;5.688;2024-01-11T13:49:28;37.40;;;13.90;;
42244;SDS011;27912;51.828;5.688;2024-01-11T13:51:54;41.67;;;13.93;;
42244;SDS011;27912;51.828;5.688;2024-01-11T13:54:19;36.83;;;12.90;;
42244;SDS011;27912;51.828;5.688;2024-01-11T13:56:47;40.10;;;13.63;;
42244;SDS011;27912;51.828;5.688;2024-01-11T13:59:12;33.67;;;12.38;;
42244;SDS011;27912;51.828;5.688;2024-01-11T14:01:39;36.55;;;12.68;;
42244;SDS011;27912;51.828;5.688;2024-01-11T14:04:04;37.55;;;13.20;;
42244;SDS011;27912;51.828;5.688;2024-01-11T14:06:30;39.17;;;12.52;;
42244;SDS011;27912;51.828;5.688;2024-01-11T14:08:56;37.90;;;13.18;;
42244;SDS011;27912;51.828;5.688;2024-01-11T14:11:21;34.63;;;12.70;;
42244;SDS011;27912;51.828;5.688;2024-01-11T14:13:47;37.25;;;14.43;;
42244;SDS011;27912;51.828;5.688;2024-01-11T14:16:13;38.78;;;13.07;;
42244;SDS011;27912;51.828;5.688;2024-01-11T14:18:40;35.13;;;12.35;;
42244;SDS011;27912;51.828;5.688;2024-01-11T14:21:06;33.35;;;12.43;;
42244;SDS011;27912;51.828;5.688;2024-01-11T14:23:32;42.42;;;15.70;;
42244;SDS011;27912;51.828;5.688;2024-01-11T14:25:57;36.50;;;13.43;;